Terminal Aerodrome Forecast
Issued by NWS Pittsburgh, PA

Current Version | Previous Version | Graphics & Text | Print | Product List | Glossary On
Versions: 1 2 3 4 5 6 7 8 9 10 11 12 13 14 15 16 17 18 19 20 21 22 23 24 25 26 27 28 29 30
000
FTUS41 KPBZ 270300 AAA
TAFPIT
TAF AMD
KPIT 270334Z 2704/2806 33008KT P6SM VCSH BKN015 OVC025
     FM270600 32006KT P6SM VCSH OVC015
     FM271800 31010KT P6SM BKN015
     FM280300 32007KT P6SM SCT015=

USA.gov is the U.S. government's official web portal to all federal, state and local government web resources and services.